createdAt,value
2018-11-23T00:00:32.043Z,101929.28
2018-11-23T00:03:01.616Z,101925.14
2018-11-23T00:05:30.663Z,101920.64
2018-11-23T00:08:00.132Z,101926.30
2018-11-23T00:10:31.106Z,101924.48
2018-11-23T00:13:00.070Z,101921.81
2018-11-23T00:15:29.010Z,101924.45
2018-11-23T00:17:58.209Z,101925.63
2018-11-23T00:20:28.262Z,101927.11
2018-11-23T00:22:57.282Z,101928.63
2018-11-23T00:25:26.859Z,101924.48
2018-11-23T00:27:56.461Z,101925.47
2018-11-23T00:30:26.530Z,101920.64
2018-11-23T00:32:55.557Z,101922.14
2018-11-23T00:35:25.963Z,101919.97
2018-11-23T00:37:55.464Z,101929.09
2018-11-23T00:40:26.567Z,101924.63
2018-11-23T00:42:55.884Z,101924.11
2018-11-23T00:45:24.902Z,101932.80
2018-11-23T00:47:54.621Z,101931.94
2018-11-23T00:50:24.296Z,101934.75
2018-11-23T00:52:54.010Z,101930.62
2018-11-23T00:55:23.977Z,101928.30
2018-11-23T00:57:53.010Z,101931.95
2018-11-23T01:00:25.412Z,101929.96
2018-11-23T01:02:54.952Z,101931.45
2018-11-23T01:05:23.921Z,101923.16
2018-11-23T01:07:52.875Z,101929.29
2018-11-23T01:10:22.980Z,101925.33
2018-11-23T01:12:52.962Z,101927.45
2018-11-23T01:15:21.903Z,101926.63
2018-11-23T01:17:50.932Z,101926.62
2018-11-23T01:20:21.228Z,101932.95
2018-11-23T01:22:50.556Z,101918.84
2018-11-23T01:25:20.530Z,101911.34
2018-11-23T01:27:50.711Z,101906.20
2018-11-23T01:30:23.368Z,101910.20
2018-11-23T01:32:52.356Z,101908.21
2018-11-23T01:35:21.332Z,101903.38
2018-11-23T01:37:50.359Z,101908.69
2018-11-23T01:40:22.006Z,101898.73
2018-11-23T01:42:51.049Z,101903.22
2018-11-23T01:45:20.060Z,101895.58
2018-11-23T01:47:49.073Z,101888.63
2018-11-23T01:50:20.491Z,101889.28
2018-11-23T01:52:50.270Z,101887.44
2018-11-23T01:55:20.102Z,101886.45
2018-11-23T01:57:49.546Z,101882.09
2018-11-23T02:00:19.682Z,101879.97
2018-11-23T02:02:49.301Z,101884.79
2018-11-23T02:05:18.305Z,101878.97
2018-11-23T02:07:47.272Z,101877.31
2018-11-23T02:10:17.121Z,101880.97
2018-11-23T02:12:46.069Z,101868.49
2018-11-23T02:15:17.169Z,101874.01
2018-11-23T02:17:46.489Z,101877.31
2018-11-23T02:20:16.646Z,101875.17
2018-11-23T02:22:45.607Z,101870.67
2018-11-23T02:25:14.604Z,101871.66
2018-11-23T02:27:43.566Z,101869.50
2018-11-23T02:30:14.628Z,101870.02
2018-11-23T02:32:43.885Z,101867.84
2018-11-23T02:35:13.204Z,101866.02
2018-11-23T02:37:42.198Z,101873.00
2018-11-23T02:40:12.522Z,101871.67
2018-11-23T02:42:41.750Z,101865.88
2018-11-23T02:45:13.260Z,101876.48
2018-11-23T02:47:43.015Z,101871.50
2018-11-23T02:50:12.020Z,101868.70
2018-11-23T02:52:41.663Z,101866.38
2018-11-23T02:55:11.924Z,101867.20
2018-11-23T02:57:40.894Z,101861.84
2018-11-23T03:00:11.918Z,101862.55
2018-11-23T03:02:41.053Z,101857.38
2018-11-23T03:05:11.669Z,101858.56
2018-11-23T03:07:41.502Z,101851.58
2018-11-23T03:10:11.742Z,101854.58
2018-11-23T03:12:41.426Z,101854.42
2018-11-23T03:15:12.360Z,101852.59
2018-11-23T03:17:41.767Z,101852.75
2018-11-23T03:20:13.055Z,101855.25
2018-11-23T03:22:41.999Z,101853.91
2018-11-23T03:25:11.520Z,101851.41
2018-11-23T03:27:41.027Z,101854.23
2018-11-23T03:30:12.174Z,101855.06
2018-11-23T03:32:41.311Z,101851.42
2018-11-23T03:35:10.257Z,101850.94
2018-11-23T03:37:39.269Z,101849.91
2018-11-23T03:40:08.240Z,101844.78
2018-11-23T03:42:37.171Z,101842.12
2018-11-23T03:45:07.619Z,101844.45
2018-11-23T03:47:36.552Z,101842.30
2018-11-23T03:50:06.128Z,101840.78
2018-11-23T03:52:35.177Z,101841.63
2018-11-23T03:55:04.148Z,101835.30
2018-11-23T03:57:33.159Z,101838.62
2018-11-23T04:00:02.097Z,101839.45
2018-11-23T04:02:31.065Z,101834.47
2018-11-23T04:04:59.989Z,101833.84
2018-11-23T04:07:28.956Z,101835.80
2018-11-23T04:09:57.879Z,101831.00
2018-11-23T04:12:26.778Z,101821.72
2018-11-23T04:14:55.746Z,101823.20
2018-11-23T04:17:24.722Z,101832.84
2018-11-23T04:19:53.646Z,101831.17
2018-11-23T04:22:22.604Z,101837.15
2018-11-23T04:24:51.975Z,101829.68
2018-11-23T04:27:20.913Z,101827.20
2018-11-23T04:29:49.866Z,101824.53
2018-11-23T04:32:18.817Z,101827.36
2018-11-23T04:34:47.766Z,101831.02
2018-11-23T04:37:16.739Z,101826.86
2018-11-23T04:39:45.699Z,101826.18
2018-11-23T04:42:14.619Z,101827.19
2018-11-23T04:44:43.618Z,101823.84
2018-11-23T04:47:12.725Z,101824.04
2018-11-23T04:49:41.670Z,101831.00
2018-11-23T04:52:10.614Z,101827.67
2018-11-23T04:54:39.556Z,101828.68
2018-11-23T04:57:08.496Z,101830.49
2018-11-23T04:59:37.790Z,101825.84
2018-11-23T05:02:06.756Z,101827.84
2018-11-23T05:04:35.715Z,101827.34
2018-11-23T05:07:04.678Z,101829.83
2018-11-23T05:09:33.602Z,101833.83
2018-11-23T05:12:02.505Z,101838.81
2018-11-23T05:14:31.480Z,101835.81
2018-11-23T05:17:00.420Z,101837.45
2018-11-23T05:19:29.368Z,101831.34
2018-11-23T05:21:58.297Z,101830.02
2018-11-23T05:24:27.206Z,101831.66
2018-11-23T05:26:56.143Z,101835.98
2018-11-23T05:29:25.104Z,101835.83
2018-11-23T05:31:54.013Z,101830.84
2018-11-23T05:34:22.981Z,101824.52
2018-11-23T05:36:51.981Z,101820.37
2018-11-23T05:39:20.920Z,101820.39
2018-11-23T05:41:49.911Z,101820.19
2018-11-23T05:44:18.867Z,101817.23
2018-11-23T05:46:47.821Z,101816.05
2018-11-23T05:49:16.739Z,101825.19
2018-11-23T05:51:45.725Z,101818.20
2018-11-23T05:54:14.683Z,101812.58
2018-11-23T05:56:43.631Z,101807.45
2018-11-23T05:59:12.973Z,101811.57
2018-11-23T06:01:41.936Z,101812.90
2018-11-23T06:04:10.900Z,101811.25
2018-11-23T06:06:42.486Z,101811.09
2018-11-23T06:09:08.797Z,101808.61
2018-11-23T06:11:37.752Z,101811.24
2018-11-23T06:14:06.673Z,101804.12
2018-11-23T06:16:35.633Z,101803.28
2018-11-23T06:19:04.601Z,101799.30
2018-11-23T06:21:33.539Z,101793.79
2018-11-23T06:24:02.533Z,101797.29
2018-11-23T06:26:31.750Z,101791.33
2018-11-23T06:29:01.093Z,101797.78
2018-11-23T06:31:30.021Z,101794.98
2018-11-23T06:33:58.991Z,101801.62
2018-11-23T06:36:27.947Z,101799.65
2018-11-23T06:38:56.923Z,101804.77
2018-11-23T06:41:25.867Z,101806.25
2018-11-23T06:43:54.792Z,101805.93
2018-11-23T06:46:23.751Z,101807.59
2018-11-23T06:48:52.760Z,101813.06
2018-11-23T06:51:21.755Z,101819.22
2018-11-23T06:53:50.696Z,101815.89
2018-11-23T06:56:19.647Z,101814.72
2018-11-23T06:58:48.572Z,101819.04
2018-11-23T07:01:17.529Z,101820.86
2018-11-23T07:03:46.425Z,101819.89
2018-11-23T07:06:15.361Z,101822.54
2018-11-23T07:08:44.350Z,101822.22
2018-11-23T07:11:13.582Z,101815.42
2018-11-23T07:13:42.498Z,101822.52
2018-11-23T07:16:11.455Z,101811.90
2018-11-23T07:18:40.439Z,101818.22
2018-11-23T07:21:09.387Z,101823.87
2018-11-23T07:23:38.365Z,101812.91
2018-11-23T07:26:08.205Z,101817.05
2018-11-23T07:28:37.147Z,101817.55
2018-11-23T07:31:06.073Z,101816.41
2018-11-23T07:33:35.020Z,101822.21
2018-11-23T07:36:03.960Z,101821.55
2018-11-23T07:38:32.876Z,101816.73
2018-11-23T07:41:13.114Z,101814.72
2018-11-23T07:43:42.060Z,101811.60
2018-11-23T07:46:10.991Z,101810.59
2018-11-23T07:48:39.947Z,101810.91
2018-11-23T07:51:08.870Z,101812.92
2018-11-23T07:53:37.800Z,101815.25
2018-11-23T07:56:06.762Z,101818.08
2018-11-23T07:58:35.681Z,101817.23
2018-11-23T08:01:04.695Z,101817.73
2018-11-23T08:03:33.630Z,101816.73
2018-11-23T08:06:02.535Z,101818.08
2018-11-23T08:08:31.487Z,101821.52
2018-11-23T08:11:03.082Z,101819.21
2018-11-23T08:13:32.023Z,101824.18
2018-11-23T08:16:00.970Z,101823.70
2018-11-23T08:18:29.938Z,101820.38
2018-11-23T08:20:58.853Z,101813.09
2018-11-23T08:23:27.791Z,101820.03
2018-11-23T08:25:56.741Z,101826.86
2018-11-23T08:28:25.679Z,101825.04
2018-11-23T08:30:54.605Z,101826.70
2018-11-23T08:33:23.531Z,101818.05
2018-11-23T08:35:52.443Z,101816.37
2018-11-23T08:38:21.365Z,101816.41
2018-11-23T08:40:50.337Z,101816.22
2018-11-23T08:43:19.311Z,101816.88
2018-11-23T08:45:48.310Z,101813.40
2018-11-23T08:48:17.277Z,101806.45
2018-11-23T08:50:46.199Z,101803.97
2018-11-23T08:53:15.127Z,101805.44
2018-11-23T08:55:44.080Z,101808.61
2018-11-23T08:58:13.003Z,101799.48
2018-11-23T09:00:41.954Z,101799.95
2018-11-23T09:03:11.236Z,101801.78
2018-11-23T09:05:40.157Z,101798.64
2018-11-23T09:08:09.113Z,101789.32
2018-11-23T09:10:40.233Z,101792.33
2018-11-23T09:13:09.138Z,101798.80
2018-11-23T09:15:38.075Z,101793.83
2018-11-23T09:18:07.020Z,101790.65
2018-11-23T09:20:35.963Z,101794.44
2018-11-23T09:23:05.000Z,101791.29
2018-11-23T09:25:33.952Z,101791.66
2018-11-23T09:28:02.909Z,101791.98
2018-11-23T09:30:31.889Z,101784.36
2018-11-23T09:33:00.781Z,101785.34
2018-11-23T09:35:30.058Z,101789.00
2018-11-23T09:37:59.002Z,101786.30
2018-11-23T09:40:29.274Z,101785.34
2018-11-23T09:42:58.375Z,101787.83
2018-11-23T09:45:28.814Z,101788.67
2018-11-23T09:47:59.232Z,101790.13
2018-11-23T09:50:28.622Z,101787.31
2018-11-23T09:52:58.976Z,101780.34
2018-11-23T09:55:28.831Z,101772.32
2018-11-23T09:57:57.745Z,101785.46
2018-11-23T10:00:29.178Z,101772.69
2018-11-23T10:02:58.932Z,101778.33
2018-11-23T10:05:28.741Z,101770.72
2018-11-23T10:07:59.078Z,101774.51
2018-11-23T10:10:28.786Z,101768.18
2018-11-23T10:12:57.756Z,101762.86
2018-11-23T10:15:27.846Z,101766.84
2018-11-23T10:17:56.755Z,101760.03
2018-11-23T10:20:28.129Z,101755.50
2018-11-23T10:22:57.184Z,101755.20
2018-11-23T10:25:28.276Z,101757.12
2018-11-23T10:27:57.487Z,101755.31
2018-11-23T10:30:27.662Z,101744.47
2018-11-23T10:32:58.136Z,101745.81
2018-11-23T10:35:27.407Z,101738.95
2018-11-23T10:37:57.507Z,101737.68
2018-11-23T10:40:27.974Z,101733.53
2018-11-23T10:42:56.898Z,101729.86
2018-11-23T10:45:27.134Z,101721.51
2018-11-23T10:47:56.906Z,101714.15
2018-11-23T10:50:27.311Z,101719.78
2018-11-23T10:55:32.759Z,101707.50
2018-11-23T10:58:01.704Z,101706.66
2018-11-23T11:00:35.863Z,101704.44
2018-11-23T11:03:10.598Z,101709.28
2018-11-23T11:05:44.907Z,101703.75
2018-11-23T11:08:13.819Z,101701.47
2018-11-23T11:10:42.774Z,101694.73
2018-11-23T11:13:11.728Z,101690.00
2018-11-23T11:15:40.778Z,101691.63
2018-11-23T11:18:09.718Z,101684.41
2018-11-23T11:20:38.641Z,101686.71
2018-11-23T11:23:07.602Z,101682.13
2018-11-23T11:25:36.562Z,101683.20
2018-11-23T11:28:05.511Z,101677.09
2018-11-23T11:30:34.419Z,101679.22
2018-11-23T11:33:03.319Z,101673.28
2018-11-23T11:35:32.286Z,101678.72
2018-11-23T11:38:01.241Z,101675.68
2018-11-23T11:40:30.146Z,101676.80
2018-11-23T11:42:59.082Z,101678.64
2018-11-23T11:45:28.069Z,101674.36
2018-11-23T11:47:57.004Z,101673.99
2018-11-23T11:50:25.899Z,101670.30
2018-11-23T11:52:54.845Z,101660.84
2018-11-23T11:55:23.783Z,101661.89
2018-11-23T11:57:52.743Z,101663.72
2018-11-23T12:00:23.873Z,101660.92
2018-11-23T12:02:52.984Z,101660.39
2018-11-23T12:05:21.915Z,101648.05
2018-11-23T12:07:50.850Z,101642.86
2018-11-23T12:10:22.419Z,101640.39
2018-11-23T12:12:51.451Z,101638.99
2018-11-23T12:15:20.476Z,101633.16
2018-11-23T12:17:49.492Z,101624.86
2018-11-23T12:20:19.975Z,101629.80
2018-11-23T12:22:55.445Z,101622.27
2018-11-23T12:25:24.496Z,101625.53
2018-11-23T12:27:53.599Z,101627.73
2018-11-23T12:30:23.096Z,101628.17
2018-11-23T12:32:53.274Z,101629.19
2018-11-23T12:35:22.684Z,101625.81
2018-11-23T12:37:51.625Z,101628.67
2018-11-23T12:40:21.173Z,101625.59
2018-11-23T12:42:50.484Z,101623.10
2018-11-23T12:45:21.813Z,101626.11
2018-11-23T12:47:50.730Z,101620.81
2018-11-23T12:50:21.262Z,101620.79
2018-11-23T12:52:50.186Z,101624.22
2018-11-23T12:55:19.567Z,101621.28
2018-11-23T12:57:48.631Z,101613.56
2018-11-23T13:00:20.835Z,101609.69
2018-11-23T13:02:51.098Z,101602.66
2018-11-23T13:05:20.976Z,101600.28
2018-11-23T13:07:50.505Z,101596.45
2018-11-23T13:10:19.472Z,101594.33
2018-11-23T13:12:50.952Z,101595.61
2018-11-23T13:15:17.335Z,101592.06
2018-11-23T13:17:46.298Z,101590.63
2018-11-23T13:20:15.935Z,101585.13
2018-11-23T13:22:45.030Z,101588.21
2018-11-23T13:25:17.094Z,101580.72
2018-11-23T13:27:46.032Z,101583.43
2018-11-23T13:30:18.361Z,101582.16
2018-11-23T13:32:47.312Z,101581.78
2018-11-23T13:35:17.353Z,101580.54
2018-11-23T13:37:46.260Z,101582.91
2018-11-23T13:40:16.617Z,101579.37
2018-11-23T13:42:45.781Z,101573.83
2018-11-23T13:45:16.260Z,101580.83
2018-11-23T13:47:45.194Z,101579.06
2018-11-23T13:50:15.413Z,101571.42
2018-11-23T13:52:45.462Z,101573.39
2018-11-23T13:55:14.447Z,101576.27
2018-11-23T13:57:43.419Z,101578.16
2018-11-23T14:00:14.444Z,101573.72
2018-11-23T14:02:44.108Z,101575.56
2018-11-23T14:05:15.446Z,101574.06
2018-11-23T14:07:45.391Z,101575.36
2018-11-23T14:10:15.876Z,101574.91
2018-11-23T14:12:45.188Z,101574.52
2018-11-23T14:15:15.659Z,101573.92
2018-11-23T14:17:45.593Z,101564.61
2018-11-23T14:20:15.390Z,101569.61
2018-11-23T14:22:44.322Z,101571.80
2018-11-23T14:25:14.817Z,101565.91
2018-11-23T14:27:44.332Z,101572.63
2018-11-23T14:30:15.585Z,101567.69
2018-11-23T14:32:44.607Z,101567.97
2018-11-23T14:35:14.994Z,101576.13
2018-11-23T14:37:44.545Z,101578.58
2018-11-23T14:40:13.991Z,101574.06
2018-11-23T14:42:43.832Z,101575.56
2018-11-23T14:45:16.363Z,101574.44
2018-11-23T14:47:45.509Z,101572.16
2018-11-23T14:50:16.819Z,101567.03
2018-11-23T14:52:47.914Z,101559.45
2018-11-23T14:55:17.234Z,101561.59
2018-11-23T14:57:46.556Z,101562.19
2018-11-23T15:00:31.811Z,101565.45
2018-11-23T15:03:01.967Z,101557.84
2018-11-23T15:05:30.884Z,101552.80
2018-11-23T15:07:59.790Z,101551.83
2018-11-23T15:10:29.868Z,101556.68
2018-11-23T15:12:59.840Z,101543.03
2018-11-23T15:15:30.192Z,101544.39
2018-11-23T15:17:59.712Z,101536.03
2018-11-23T15:20:31.451Z,101535.02
2018-11-23T15:23:01.881Z,101531.86
2018-11-23T15:25:30.826Z,101536.66
2018-11-23T15:27:59.757Z,101532.36
2018-11-23T15:30:31.513Z,101523.35
2018-11-23T15:33:00.466Z,101524.70
2018-11-23T15:35:30.541Z,101531.52
2018-11-23T15:37:59.556Z,101528.85
2018-11-23T15:40:29.381Z,101529.06
2018-11-23T15:43:00.723Z,101535.45
2018-11-23T15:45:30.666Z,101528.41
2018-11-23T15:48:00.217Z,101521.57
2018-11-23T15:50:31.576Z,101521.80
2018-11-23T15:53:00.550Z,101524.69
2018-11-23T15:55:31.088Z,101522.54
2018-11-23T15:58:01.581Z,101523.32
2018-11-23T16:00:32.853Z,101519.19
2018-11-23T16:03:01.835Z,101519.54
2018-11-23T16:05:30.790Z,101520.88
2018-11-23T16:08:01.427Z,101521.57
2018-11-23T16:10:31.791Z,101518.45
2018-11-23T16:13:01.734Z,101519.64
2018-11-23T16:15:31.085Z,101521.78
2018-11-23T16:18:00.645Z,101520.48
2018-11-23T16:20:31.968Z,101520.83
2018-11-23T16:23:03.197Z,101521.22
2018-11-23T16:25:32.127Z,101527.80
2018-11-23T16:28:02.414Z,101529.94
2018-11-23T16:30:32.679Z,101525.23
2018-11-23T16:33:02.754Z,101520.80
2018-11-23T16:35:34.173Z,101514.28
2018-11-23T16:38:04.732Z,101514.70
2018-11-23T16:40:34.917Z,101518.13
2018-11-23T16:43:04.320Z,101520.44
2018-11-23T16:45:34.560Z,101517.09
2018-11-23T16:48:04.788Z,101525.83
2018-11-23T16:50:33.739Z,101524.34
2018-11-23T16:53:03.171Z,101526.39
2018-11-23T16:55:32.270Z,101521.91
2018-11-23T16:58:03.445Z,101512.71
2018-11-23T17:00:33.403Z,101515.73
2018-11-23T17:03:04.718Z,101517.30
2018-11-23T17:05:37.168Z,101520.98
2018-11-23T17:08:07.195Z,101523.49
2018-11-23T17:10:36.161Z,101527.26
2018-11-23T17:13:05.138Z,101518.97
2018-11-23T17:15:34.107Z,101517.25
2018-11-23T17:18:03.055Z,101514.77
2018-11-23T17:20:33.212Z,101520.61
2018-11-23T17:23:03.124Z,101515.77
2018-11-23T17:25:32.524Z,101507.66
2018-11-23T17:28:03.082Z,101507.05
2018-11-23T17:30:33.062Z,101510.05
2018-11-23T17:33:02.024Z,101504.72
2018-11-23T17:35:30.966Z,101499.70
2018-11-23T17:37:59.931Z,101499.70
2018-11-23T17:40:30.576Z,101509.78
2018-11-23T17:42:59.477Z,101506.94
2018-11-23T17:45:30.477Z,101505.55
2018-11-23T17:47:59.502Z,101500.77
2018-11-23T17:50:29.790Z,101507.06
2018-11-23T17:52:59.036Z,101498.81
2018-11-23T17:55:27.995Z,101492.20
2018-11-23T17:57:57.118Z,101504.32
2018-11-23T18:00:28.262Z,101500.48
2018-11-23T18:02:58.013Z,101497.26
2018-11-23T18:05:27.590Z,101501.04
2018-11-23T18:07:56.548Z,101497.05
2018-11-23T18:10:26.826Z,101497.53
2018-11-23T18:12:56.521Z,101488.74
2018-11-23T18:15:26.543Z,101491.14
2018-11-23T18:17:56.562Z,101487.01
2018-11-23T18:20:26.376Z,101490.52
2018-11-23T18:22:56.087Z,101482.62
2018-11-23T18:25:27.468Z,101490.87
2018-11-23T18:28:00.651Z,101482.62
2018-11-23T18:30:31.643Z,101481.42
2018-11-23T18:33:01.501Z,101485.20
2018-11-23T18:35:30.436Z,101479.59
2018-11-23T18:37:59.386Z,101478.88
2018-11-23T18:40:28.323Z,101480.66
2018-11-23T18:42:57.254Z,101474.81
2018-11-23T18:45:26.211Z,101471.88
2018-11-23T18:47:55.142Z,101474.23
2018-11-23T18:50:24.095Z,101475.03
2018-11-23T18:52:53.025Z,101469.88
2018-11-23T18:55:21.972Z,101463.36
2018-11-23T18:57:51.112Z,101467.58
2018-11-23T19:00:20.078Z,101462.42
2018-11-23T19:02:49.006Z,101456.84
2018-11-23T19:05:20.397Z,101456.87
2018-11-23T19:07:49.316Z,101451.86
2018-11-23T19:10:18.259Z,101447.46
2018-11-23T19:12:47.200Z,101450.91
2018-11-23T19:15:17.561Z,101451.64
2018-11-23T19:17:45.977Z,101450.18
2018-11-23T19:20:16.005Z,101448.85
2018-11-23T19:22:51.096Z,101442.41
2018-11-23T19:25:20.005Z,101428.96
2018-11-23T19:27:48.937Z,101420.94
2018-11-23T19:30:19.001Z,101416.27
2018-11-23T19:32:47.945Z,101418.67
2018-11-23T19:35:16.905Z,101417.44
2018-11-23T19:37:45.854Z,101413.07
2018-11-23T19:40:15.685Z,101403.17
2018-11-23T19:42:45.223Z,101397.09
2018-11-23T19:45:15.116Z,101396.62
2018-11-23T19:47:44.162Z,101398.70
2018-11-23T19:50:14.177Z,101395.95
2018-11-23T19:52:43.119Z,101391.73
2018-11-23T19:55:13.879Z,101394.19
2018-11-23T19:57:42.848Z,101389.23
2018-11-23T20:00:13.598Z,101386.33
2018-11-23T20:02:42.562Z,101395.70
2018-11-23T20:05:11.499Z,101390.25
2018-11-23T20:07:40.417Z,101380.33
2018-11-23T20:10:16.324Z,101383.74
2018-11-23T20:12:46.075Z,101382.94
2018-11-23T20:15:16.999Z,101377.61
2018-11-23T20:17:45.966Z,101374.84
2018-11-23T20:20:15.629Z,101372.66
2018-11-23T20:22:44.907Z,101376.23
2018-11-23T20:25:18.773Z,101368.50
2018-11-23T20:27:48.761Z,101370.02
2018-11-23T20:30:18.606Z,101363.44
2018-11-23T20:32:47.592Z,101362.91
2018-11-23T20:35:22.413Z,101366.08
2018-11-23T20:37:51.347Z,101368.78
2018-11-23T20:40:21.287Z,101370.19
2018-11-23T20:42:50.281Z,101366.52
2018-11-23T20:45:19.227Z,101370.02
2018-11-23T20:47:48.195Z,101368.16
2018-11-23T20:50:17.796Z,101359.05
2018-11-23T20:52:46.736Z,101361.27
2018-11-23T20:55:16.923Z,101363.69
2018-11-23T20:57:45.845Z,101357.98
2018-11-23T21:00:16.594Z,101355.09
2018-11-23T21:02:46.128Z,101357.45
2018-11-23T21:05:16.172Z,101354.79
2018-11-23T21:07:45.125Z,101355.76
2018-11-23T21:10:20.727Z,101348.02
2018-11-23T21:12:49.054Z,101344.41
2018-11-23T21:15:25.154Z,101340.38
2018-11-23T21:17:54.117Z,101334.97
2018-11-23T21:20:23.086Z,101335.39
2018-11-23T21:22:52.049Z,101327.75
2018-11-23T21:25:20.954Z,101325.27
2018-11-23T21:27:49.862Z,101322.42
2018-11-23T21:30:21.800Z,101318.73
2018-11-23T21:32:51.265Z,101319.50
2018-11-23T21:35:20.199Z,101309.41
2018-11-23T21:37:49.164Z,101311.80
2018-11-23T21:40:18.160Z,101304.89
2018-11-23T21:42:47.118Z,101305.09
2018-11-23T21:45:16.978Z,101304.23
2018-11-23T21:47:45.948Z,101302.73
2018-11-23T21:50:16.614Z,101300.50
2018-11-23T21:52:45.578Z,101302.81
2018-11-23T21:55:29.306Z,101299.50
2018-11-23T21:57:58.234Z,101286.58
2018-11-23T22:00:27.184Z,101297.32
2018-11-23T22:02:56.122Z,101295.13
2018-11-23T22:05:25.021Z,101293.73
2018-11-23T22:07:53.973Z,101298.30
2018-11-23T22:10:22.886Z,101295.17
2018-11-23T22:12:52.094Z,101301.48
2018-11-23T22:15:23.852Z,101295.34
2018-11-23T22:17:54.804Z,101296.36
2018-11-23T22:20:24.057Z,101301.72
2018-11-23T22:22:52.974Z,101293.17
2018-11-23T22:25:22.690Z,101301.61
2018-11-23T22:27:51.622Z,101297.34
2018-11-23T22:30:25.085Z,101296.66
2018-11-23T22:32:54.005Z,101291.64
2018-11-23T22:35:22.971Z,101284.85
2018-11-23T22:37:52.231Z,101283.66
2018-11-23T22:40:21.394Z,101285.11
2018-11-23T22:42:51.719Z,101285.36
2018-11-23T22:45:20.722Z,101276.30
2018-11-23T22:47:49.634Z,101262.30
2018-11-23T22:50:19.670Z,101266.62
2018-11-23T22:52:48.672Z,101266.94
2018-11-23T22:55:18.339Z,101271.69
2018-11-23T22:57:47.259Z,101273.08
2018-11-23T23:00:23.762Z,101271.55
2018-11-23T23:02:52.696Z,101272.05
2018-11-23T23:05:22.778Z,101267.56
2018-11-23T23:07:51.739Z,101263.14
2018-11-23T23:10:20.684Z,101255.12
2018-11-23T23:12:49.640Z,101255.89
2018-11-23T23:15:18.543Z,101248.70
2018-11-23T23:17:47.463Z,101251.34
2018-11-23T23:20:17.772Z,101247.84
2018-11-23T23:22:50.916Z,101241.00
2018-11-23T23:25:20.494Z,101243.16
2018-11-23T23:27:49.424Z,101239.97
2018-11-23T23:30:21.232Z,101236.47
2018-11-23T23:32:51.080Z,101235.95
2018-11-23T23:35:19.991Z,101225.52
2018-11-23T23:37:48.959Z,101227.16
2018-11-23T23:40:18.359Z,101214.70
2018-11-23T23:42:47.852Z,101220.09
2018-11-23T23:45:17.744Z,101217.68
2018-11-23T23:47:46.756Z,101213.75
2018-11-23T23:50:20.547Z,101210.56
2018-11-23T23:52:50.188Z,101220.28
2018-11-23T23:55:19.381Z,101217.74
2018-11-23T23:57:48.783Z,101222.76
